sensor_id;sensor_type;location;lat;lon;timestamp;temperature;humidity
12948;DHT22;6539;49.476;8.484;2023-01-26T00:01:23;4.00;99.90
12948;DHT22;6539;49.476;8.484;2023-01-26T00:03:52;4.10;99.90
12948;DHT22;6539;49.476;8.484;2023-01-26T00:06:21;4.00;99.90
12948;DHT22;6539;49.476;8.484;2023-01-26T00:08:52;4.00;99.90
12948;DHT22;6539;49.476;8.484;2023-01-26T00:11:27;4.20;99.90
12948;DHT22;6539;49.476;8.484;2023-01-26T00:13:55;4.10;99.90
12948;DHT22;6539;49.476;8.484;2023-01-26T00:16:23;4.10;99.90
12948;DHT22;6539;49.476;8.484;2023-01-26T00:18:52;4.30;99.90
12948;DHT22;6539;49.476;8.484;2023-01-26T00:21:20;4.10;99.90
12948;DHT22;6539;49.476;8.484;2023-01-26T00:23:48;4.10;99.90
12948;DHT22;6539;49.476;8.484;2023-01-26T00:26:20;4.10;99.90
12948;DHT22;6539;49.476;8.484;2023-01-26T00:28:48;4.20;99.90
12948;DHT22;6539;49.476;8.484;2023-01-26T00:31:17;4.30;99.90
12948;DHT22;6539;49.476;8.484;2023-01-26T00:33:45;4.20;99.90
12948;DHT22;6539;49.476;8.484;2023-01-26T00:36:11;4.20;99.90
12948;DHT22;6539;49.476;8.484;2023-01-26T00:38:42;4.20;99.90
12948;DHT22;6539;49.476;8.484;2023-01-26T00:41:12;4.50;99.90
12948;DHT22;6539;49.476;8.484;2023-01-26T00:43:58;4.30;99.90
12948;DHT22;6539;49.476;8.484;2023-01-26T00:46:24;4.00;99.90
12948;DHT22;6539;49.476;8.484;2023-01-26T00:48:50;4.00;99.90
12948;DHT22;6539;49.476;8.484;2023-01-26T00:51:23;4.20;99.90
12948;DHT22;6539;49.476;8.484;2023-01-26T00:53:51;3.90;99.90
12948;DHT22;6539;49.476;8.484;2023-01-26T00:56:21;4.10;99.90
12948;DHT22;6539;49.476;8.484;2023-01-26T01:01:16;4.00;99.90
12948;DHT22;6539;49.476;8.484;2023-01-26T01:03:42;4.00;99.90
12948;DHT22;6539;49.476;8.484;2023-01-26T01:06:15;4.20;99.90
12948;DHT22;6539;49.476;8.484;2023-01-26T01:08:40;3.50;99.90
12948;DHT22;6539;49.476;8.484;2023-01-26T01:11:12;4.30;99.90
12948;DHT22;6539;49.476;8.484;2023-01-26T01:13:38;4.00;99.90
12948;DHT22;6539;49.476;8.484;2023-01-26T01:16:08;4.10;99.90
12948;DHT22;6539;49.476;8.484;2023-01-26T01:18:37;4.10;99.90
12948;DHT22;6539;49.476;8.484;2023-01-26T01:21:08;4.00;99.90
12948;DHT22;6539;49.476;8.484;2023-01-26T01:23:38;4.30;99.90
12948;DHT22;6539;49.476;8.484;2023-01-26T01:26:07;3.90;99.90
12948;DHT22;6539;49.476;8.484;2023-01-26T01:28:34;3.90;99.90
12948;DHT22;6539;49.476;8.484;2023-01-26T01:31:09;4.20;99.90
12948;DHT22;6539;49.476;8.484;2023-01-26T01:33:39;4.10;99.90
12948;DHT22;6539;49.476;8.484;2023-01-26T01:36:13;4.20;99.90
12948;DHT22;6539;49.476;8.484;2023-01-26T01:38:40;4.00;99.90
12948;DHT22;6539;49.476;8.484;2023-01-26T01:41:08;4.20;99.90
12948;DHT22;6539;49.476;8.484;2023-01-26T01:43:35;4.00;99.90
12948;DHT22;6539;49.476;8.484;2023-01-26T01:46:10;3.90;99.90
12948;DHT22;6539;49.476;8.484;2023-01-26T01:48:46;4.20;99.90
12948;DHT22;6539;49.476;8.484;2023-01-26T01:54:18;4.00;99.90
12948;DHT22;6539;49.476;8.484;2023-01-26T01:56:58;4.20;99.90
12948;DHT22;6539;49.476;8.484;2023-01-26T01:59:33;4.20;99.90
12948;DHT22;6539;49.476;8.484;2023-01-26T02:01:59;4.00;99.90
12948;DHT22;6539;49.476;8.484;2023-01-26T02:04:25;3.80;99.90
12948;DHT22;6539;49.476;8.484;2023-01-26T02:06:53;4.00;99.90
12948;DHT22;6539;49.476;8.484;2023-01-26T02:09:30;4.00;99.90
12948;DHT22;6539;49.476;8.484;2023-01-26T02:12:23;4.20;99.90
12948;DHT22;6539;49.476;8.484;2023-01-26T02:14:52;4.20;99.90
12948;DHT22;6539;49.476;8.484;2023-01-26T02:17:18;4.00;99.90
12948;DHT22;6539;49.476;8.484;2023-01-26T02:20:00;4.00;99.90
12948;DHT22;6539;49.476;8.484;2023-01-26T02:26:04;4.20;99.90
12948;DHT22;6539;49.476;8.484;2023-01-26T02:28:31;3.90;99.90
12948;DHT22;6539;49.476;8.484;2023-01-26T02:30:57;3.70;99.90
12948;DHT22;6539;49.476;8.484;2023-01-26T02:33:26;4.10;99.90
12948;DHT22;6539;49.476;8.484;2023-01-26T02:35:53;4.00;99.90
12948;DHT22;6539;49.476;8.484;2023-01-26T02:38:21;3.80;99.90
12948;DHT22;6539;49.476;8.484;2023-01-26T02:41:03;3.90;99.90
12948;DHT22;6539;49.476;8.484;2023-01-26T02:43:31;4.00;99.90
12948;DHT22;6539;49.476;8.484;2023-01-26T02:45:58;3.90;99.90
12948;DHT22;6539;49.476;8.484;2023-01-26T02:51:13;4.00;99.90
12948;DHT22;6539;49.476;8.484;2023-01-26T02:53:39;4.00;99.90
12948;DHT22;6539;49.476;8.484;2023-01-26T02:56:04;3.80;99.90
12948;DHT22;6539;49.476;8.484;2023-01-26T02:58:33;3.80;99.90
12948;DHT22;6539;49.476;8.484;2023-01-26T03:01:01;3.70;99.90
12948;DHT22;6539;49.476;8.484;2023-01-26T03:03:30;3.80;99.90
12948;DHT22;6539;49.476;8.484;2023-01-26T03:06:10;3.80;99.90
12948;DHT22;6539;49.476;8.484;2023-01-26T03:08:37;3.80;99.90
12948;DHT22;6539;49.476;8.484;2023-01-26T03:11:05;3.70;99.90
12948;DHT22;6539;49.476;8.484;2023-01-26T03:13:32;3.80;99.90
12948;DHT22;6539;49.476;8.484;2023-01-26T03:15:59;3.60;99.90
12948;DHT22;6539;49.476;8.484;2023-01-26T03:18:32;3.80;99.90
12948;DHT22;6539;49.476;8.484;2023-01-26T03:21:18;3.90;99.90
12948;DHT22;6539;49.476;8.484;2023-01-26T03:24:03;3.70;99.90
12948;DHT22;6539;49.476;8.484;2023-01-26T03:26:51;4.00;99.90
12948;DHT22;6539;49.476;8.484;2023-01-26T03:29:37;3.90;99.90
12948;DHT22;6539;49.476;8.484;2023-01-26T03:32:03;3.60;99.90
12948;DHT22;6539;49.476;8.484;2023-01-26T03:34:29;4.10;99.90
12948;DHT22;6539;49.476;8.484;2023-01-26T03:36:55;3.90;99.90
12948;DHT22;6539;49.476;8.484;2023-01-26T03:39:21;3.60;99.90
12948;DHT22;6539;49.476;8.484;2023-01-26T03:42:05;3.70;99.90
12948;DHT22;6539;49.476;8.484;2023-01-26T03:44:49;4.00;99.90
12948;DHT22;6539;49.476;8.484;2023-01-26T03:47:34;3.60;99.90
12948;DHT22;6539;49.476;8.484;2023-01-26T03:50:19;3.80;99.90
12948;DHT22;6539;49.476;8.484;2023-01-26T03:53:16;3.70;99.90
12948;DHT22;6539;49.476;8.484;2023-01-26T03:58:44;3.80;99.90
12948;DHT22;6539;49.476;8.484;2023-01-26T04:01:12;3.80;99.90
12948;DHT22;6539;49.476;8.484;2023-01-26T04:03:49;3.50;99.90
12948;DHT22;6539;49.476;8.484;2023-01-26T04:06:35;3.80;99.90
12948;DHT22;6539;49.476;8.484;2023-01-26T04:09:22;3.60;99.90
12948;DHT22;6539;49.476;8.484;2023-01-26T04:11:48;3.50;99.90
12948;DHT22;6539;49.476;8.484;2023-01-26T04:14:16;3.80;99.90
12948;DHT22;6539;49.476;8.484;2023-01-26T04:17:04;3.70;99.90
12948;DHT22;6539;49.476;8.484;2023-01-26T04:19:48;3.80;99.90
12948;DHT22;6539;49.476;8.484;2023-01-26T04:22:35;3.80;99.90
12948;DHT22;6539;49.476;8.484;2023-01-26T04:25:09;3.50;99.90
12948;DHT22;6539;49.476;8.484;2023-01-26T04:27:43;3.50;99.90
12948;DHT22;6539;49.476;8.484;2023-01-26T04:30:12;3.40;99.90
12948;DHT22;6539;49.476;8.484;2023-01-26T04:32:41;3.20;99.90
12948;DHT22;6539;49.476;8.484;2023-01-26T04:35:10;3.60;99.90
12948;DHT22;6539;49.476;8.484;2023-01-26T04:37:37;3.40;99.90
12948;DHT22;6539;49.476;8.484;2023-01-26T04:40:05;3.70;99.90
12948;DHT22;6539;49.476;8.484;2023-01-26T04:42:36;3.80;99.90
12948;DHT22;6539;49.476;8.484;2023-01-26T04:47:28;3.70;99.90
12948;DHT22;6539;49.476;8.484;2023-01-26T04:49:54;3.80;99.90
12948;DHT22;6539;49.476;8.484;2023-01-26T04:52:19;3.70;99.90
12948;DHT22;6539;49.476;8.484;2023-01-26T04:57:13;3.50;99.90
12948;DHT22;6539;49.476;8.484;2023-01-26T04:59:39;3.60;99.90
12948;DHT22;6539;49.476;8.484;2023-01-26T05:02:09;3.80;99.90
12948;DHT22;6539;49.476;8.484;2023-01-26T05:04:34;3.60;99.90
12948;DHT22;6539;49.476;8.484;2023-01-26T05:07:00;3.60;99.90
12948;DHT22;6539;49.476;8.484;2023-01-26T05:09:26;3.70;99.90
12948;DHT22;6539;49.476;8.484;2023-01-26T05:11:52;3.80;99.90
12948;DHT22;6539;49.476;8.484;2023-01-26T05:14:20;3.50;99.90
12948;DHT22;6539;49.476;8.484;2023-01-26T05:16:50;3.60;99.90
12948;DHT22;6539;49.476;8.484;2023-01-26T05:19:18;3.80;99.90
12948;DHT22;6539;49.476;8.484;2023-01-26T05:21:44;3.60;99.90
12948;DHT22;6539;49.476;8.484;2023-01-26T05:24:10;3.60;99.90
12948;DHT22;6539;49.476;8.484;2023-01-26T05:26:38;3.50;99.90
12948;DHT22;6539;49.476;8.484;2023-01-26T05:29:04;3.50;99.90
12948;DHT22;6539;49.476;8.484;2023-01-26T05:31:31;3.70;99.90
12948;DHT22;6539;49.476;8.484;2023-01-26T05:33:57;3.80;99.90
12948;DHT22;6539;49.476;8.484;2023-01-26T05:36:22;3.50;99.90
12948;DHT22;6539;49.476;8.484;2023-01-26T05:38:51;3.50;99.90
12948;DHT22;6539;49.476;8.484;2023-01-26T05:41:16;3.50;99.90
12948;DHT22;6539;49.476;8.484;2023-01-26T05:43:42;3.40;99.90
12948;DHT22;6539;49.476;8.484;2023-01-26T05:46:10;3.40;99.90
12948;DHT22;6539;49.476;8.484;2023-01-26T05:48:38;3.50;99.90
12948;DHT22;6539;49.476;8.484;2023-01-26T05:51:04;3.60;99.90
12948;DHT22;6539;49.476;8.484;2023-01-26T05:53:32;3.70;99.90
12948;DHT22;6539;49.476;8.484;2023-01-26T05:55:58;3.40;99.90
12948;DHT22;6539;49.476;8.484;2023-01-26T05:58:23;3.60;99.90
12948;DHT22;6539;49.476;8.484;2023-01-26T06:00:54;3.70;99.90
12948;DHT22;6539;49.476;8.484;2023-01-26T06:03:19;3.40;99.90
12948;DHT22;6539;49.476;8.484;2023-01-26T06:05:53;3.30;99.90
12948;DHT22;6539;49.476;8.484;2023-01-26T06:08:19;3.60;99.90
12948;DHT22;6539;49.476;8.484;2023-01-26T06:10:47;3.80;99.90
12948;DHT22;6539;49.476;8.484;2023-01-26T06:15:48;3.70;99.90
12948;DHT22;6539;49.476;8.484;2023-01-26T06:18:16;3.70;99.90
12948;DHT22;6539;49.476;8.484;2023-01-26T06:20:44;3.80;99.90
12948;DHT22;6539;49.476;8.484;2023-01-26T06:23:10;4.00;99.90
12948;DHT22;6539;49.476;8.484;2023-01-26T06:25:37;3.70;99.90
12948;DHT22;6539;49.476;8.484;2023-01-26T06:28:06;3.60;99.90
12948;DHT22;6539;49.476;8.484;2023-01-26T06:30:32;3.70;99.90
12948;DHT22;6539;49.476;8.484;2023-01-26T06:33:01;3.90;99.90
12948;DHT22;6539;49.476;8.484;2023-01-26T06:35:27;3.60;99.90
12948;DHT22;6539;49.476;8.484;2023-01-26T06:37:52;4.70;99.90
12948;DHT22;6539;49.476;8.484;2023-01-26T06:40:19;3.60;99.90
12948;DHT22;6539;49.476;8.484;2023-01-26T06:42:48;3.60;99.90
12948;DHT22;6539;49.476;8.484;2023-01-26T06:45:15;3.80;99.90
12948;DHT22;6539;49.476;8.484;2023-01-26T06:47:45;3.50;99.90
12948;DHT22;6539;49.476;8.484;2023-01-26T06:50:18;3.70;99.90
12948;DHT22;6539;49.476;8.484;2023-01-26T06:52:50;3.50;99.90
12948;DHT22;6539;49.476;8.484;2023-01-26T06:55:38;3.50;99.90
12948;DHT22;6539;49.476;8.484;2023-01-26T07:00:36;3.60;99.90
12948;DHT22;6539;49.476;8.484;2023-01-26T07:03:05;3.60;99.90
12948;DHT22;6539;49.476;8.484;2023-01-26T07:05:31;3.70;99.90
12948;DHT22;6539;49.476;8.484;2023-01-26T07:10:26;3.80;99.90
12948;DHT22;6539;49.476;8.484;2023-01-26T07:12:56;3.60;99.90
12948;DHT22;6539;49.476;8.484;2023-01-26T07:17:48;3.60;99.90
12948;DHT22;6539;49.476;8.484;2023-01-26T07:20:14;3.50;99.90
12948;DHT22;6539;49.476;8.484;2023-01-26T07:22:43;3.50;99.90
12948;DHT22;6539;49.476;8.484;2023-01-26T07:27:37;3.70;99.90
12948;DHT22;6539;49.476;8.484;2023-01-26T07:30:03;3.40;99.90
12948;DHT22;6539;49.476;8.484;2023-01-26T07:32:30;3.40;99.90
12948;DHT22;6539;49.476;8.484;2023-01-26T07:34:56;3.80;99.90
12948;DHT22;6539;49.476;8.484;2023-01-26T07:37:21;3.70;99.90
12948;DHT22;6539;49.476;8.484;2023-01-26T07:42:15;3.50;99.90
12948;DHT22;6539;49.476;8.484;2023-01-26T07:44:41;3.80;99.90
12948;DHT22;6539;49.476;8.484;2023-01-26T07:47:07;3.70;99.90
12948;DHT22;6539;49.476;8.484;2023-01-26T07:49:35;3.70;99.90
12948;DHT22;6539;49.476;8.484;2023-01-26T07:52:01;3.70;99.90
12948;DHT22;6539;49.476;8.484;2023-01-26T07:54:32;3.60;99.90
12948;DHT22;6539;49.476;8.484;2023-01-26T07:56:58;3.40;99.90
12948;DHT22;6539;49.476;8.484;2023-01-26T07:59:27;3.50;99.90
12948;DHT22;6539;49.476;8.484;2023-01-26T08:01:53;3.60;99.90
12948;DHT22;6539;49.476;8.484;2023-01-26T08:04:21;4.20;99.90
12948;DHT22;6539;49.476;8.484;2023-01-26T08:06:46;3.50;99.90
12948;DHT22;6539;49.476;8.484;2023-01-26T08:09:16;3.30;99.90
12948;DHT22;6539;49.476;8.484;2023-01-26T08:11:44;3.60;99.90
12948;DHT22;6539;49.476;8.484;2023-01-26T08:14:09;3.60;99.90
12948;DHT22;6539;49.476;8.484;2023-01-26T08:16:35;3.30;99.90
12948;DHT22;6539;49.476;8.484;2023-01-26T08:21:27;3.60;99.90
12948;DHT22;6539;49.476;8.484;2023-01-26T08:23:53;3.40;99.90
12948;DHT22;6539;49.476;8.484;2023-01-26T08:26:20;3.50;99.90
12948;DHT22;6539;49.476;8.484;2023-01-26T08:28:48;3.30;99.90
12948;DHT22;6539;49.476;8.484;2023-01-26T08:31:18;3.60;99.90
12948;DHT22;6539;49.476;8.484;2023-01-26T08:33:47;3.50;99.90
12948;DHT22;6539;49.476;8.484;2023-01-26T08:36:19;3.20;99.90
12948;DHT22;6539;49.476;8.484;2023-01-26T08:38:51;3.40;99.90
12948;DHT22;6539;49.476;8.484;2023-01-26T08:41:17;3.50;99.90
12948;DHT22;6539;49.476;8.484;2023-01-26T08:43:43;3.50;99.90
12948;DHT22;6539;49.476;8.484;2023-01-26T08:46:14;3.60;99.90
12948;DHT22;6539;49.476;8.484;2023-01-26T08:48:39;3.30;99.90
12948;DHT22;6539;49.476;8.484;2023-01-26T08:51:06;3.70;99.90
12948;DHT22;6539;49.476;8.484;2023-01-26T08:53:34;3.70;99.90
12948;DHT22;6539;49.476;8.484;2023-01-26T08:56:03;3.40;99.90
12948;DHT22;6539;49.476;8.484;2023-01-26T08:58:34;3.40;99.90
12948;DHT22;6539;49.476;8.484;2023-01-26T09:01:06;3.60;99.90
12948;DHT22;6539;49.476;8.484;2023-01-26T09:03:35;3.50;99.90
12948;DHT22;6539;49.476;8.484;2023-01-26T09:06:05;3.20;99.90
12948;DHT22;6539;49.476;8.484;2023-01-26T09:08:32;3.40;99.90
12948;DHT22;6539;49.476;8.484;2023-01-26T09:11:01;3.40;99.90
12948;DHT22;6539;49.476;8.484;2023-01-26T09:13:30;3.60;99.90
12948;DHT22;6539;49.476;8.484;2023-01-26T09:15:56;3.60;99.90
12948;DHT22;6539;49.476;8.484;2023-01-26T09:18:21;3.50;99.90
12948;DHT22;6539;49.476;8.484;2023-01-26T09:20:49;3.40;99.90
12948;DHT22;6539;49.476;8.484;2023-01-26T09:23:16;3.60;99.90
12948;DHT22;6539;49.476;8.484;2023-01-26T09:25:42;3.60;99.90
12948;DHT22;6539;49.476;8.484;2023-01-26T09:28:09;3.40;99.90
12948;DHT22;6539;49.476;8.484;2023-01-26T09:30:35;3.60;99.90
12948;DHT22;6539;49.476;8.484;2023-01-26T09:33:06;3.40;99.90
12948;DHT22;6539;49.476;8.484;2023-01-26T09:35:32;3.40;99.90
12948;DHT22;6539;49.476;8.484;2023-01-26T09:37:58;3.60;99.90
12948;DHT22;6539;49.476;8.484;2023-01-26T09:40:54;3.50;99.90
12948;DHT22;6539;49.476;8.484;2023-01-26T09:43:56;3.80;99.90
12948;DHT22;6539;49.476;8.484;2023-01-26T09:49:16;3.60;99.90
12948;DHT22;6539;49.476;8.484;2023-01-26T09:52:25;3.50;99.90
12948;DHT22;6539;49.476;8.484;2023-01-26T09:54:54;3.70;99.90
12948;DHT22;6539;49.476;8.484;2023-01-26T09:57:48;3.70;99.90
12948;DHT22;6539;49.476;8.484;2023-01-26T10:00:29;3.80;99.90
12948;DHT22;6539;49.476;8.484;2023-01-26T10:05:53;3.50;99.90
12948;DHT22;6539;49.476;8.484;2023-01-26T10:08:39;3.70;99.90
12948;DHT22;6539;49.476;8.484;2023-01-26T10:11:15;3.90;99.90
12948;DHT22;6539;49.476;8.484;2023-01-26T10:13:55;3.70;99.90
12948;DHT22;6539;49.476;8.484;2023-01-26T10:16:28;3.80;99.90
12948;DHT22;6539;49.476;8.484;2023-01-26T10:19:10;3.80;99.90
12948;DHT22;6539;49.476;8.484;2023-01-26T10:21:44;3.70;99.90
12948;DHT22;6539;49.476;8.484;2023-01-26T10:24:19;3.90;99.90
12948;DHT22;6539;49.476;8.484;2023-01-26T10:26:52;3.80;99.90
12948;DHT22;6539;49.476;8.484;2023-01-26T10:29:24;4.00;99.90
12948;DHT22;6539;49.476;8.484;2023-01-26T10:31:52;3.80;99.90
12948;DHT22;6539;49.476;8.484;2023-01-26T10:34:25;3.80;99.90
12948;DHT22;6539;49.476;8.484;2023-01-26T10:37:16;3.70;99.90
12948;DHT22;6539;49.476;8.484;2023-01-26T10:40:00;4.00;99.90
12948;DHT22;6539;49.476;8.484;2023-01-26T10:42:31;3.80;99.90
12948;DHT22;6539;49.476;8.484;2023-01-26T10:45:06;3.50;99.90
12948;DHT22;6539;49.476;8.484;2023-01-26T10:50:41;3.60;99.90
12948;DHT22;6539;49.476;8.484;2023-01-26T10:53:17;3.70;99.90
12948;DHT22;6539;49.476;8.484;2023-01-26T10:56:01;3.60;99.90
12948;DHT22;6539;49.476;8.484;2023-01-26T11:01:14;3.80;99.90
12948;DHT22;6539;49.476;8.484;2023-01-26T11:04:03;3.90;99.90
12948;DHT22;6539;49.476;8.484;2023-01-26T11:06:36;3.80;99.90
12948;DHT22;6539;49.476;8.484;2023-01-26T11:09:26;3.60;99.90
12948;DHT22;6539;49.476;8.484;2023-01-26T11:11:55;3.80;99.90
12948;DHT22;6539;49.476;8.484;2023-01-26T11:14:27;3.80;99.90
12948;DHT22;6539;49.476;8.484;2023-01-26T11:17:00;3.60;99.90
12948;DHT22;6539;49.476;8.484;2023-01-26T11:22:16;3.80;99.90
12948;DHT22;6539;49.476;8.484;2023-01-26T11:31:00;3.90;99.90
12948;DHT22;6539;49.476;8.484;2023-01-26T11:37:15;4.10;99.90
12948;DHT22;6539;49.476;8.484;2023-01-26T11:40:25;3.90;99.90
12948;DHT22;6539;49.476;8.484;2023-01-26T11:43:20;4.00;99.90
12948;DHT22;6539;49.476;8.484;2023-01-26T12:00:51;3.80;99.90
12948;DHT22;6539;49.476;8.484;2023-01-26T12:03:38;3.80;99.90
12948;DHT22;6539;49.476;8.484;2023-01-26T12:09:22;3.80;99.90
12948;DHT22;6539;49.476;8.484;2023-01-26T12:12:11;3.90;99.90
12948;DHT22;6539;49.476;8.484;2023-01-26T12:15:08;3.70;99.90
12948;DHT22;6539;49.476;8.484;2023-01-26T12:26:01;3.60;99.90
12948;DHT22;6539;49.476;8.484;2023-01-26T12:31:22;3.70;99.90
12948;DHT22;6539;49.476;8.484;2023-01-26T12:33:59;3.40;99.90
12948;DHT22;6539;49.476;8.484;2023-01-26T12:37:10;3.60;99.90
12948;DHT22;6539;49.476;8.484;2023-01-26T12:45:52;3.80;99.90
12948;DHT22;6539;49.476;8.484;2023-01-26T12:51:14;3.50;99.90
12948;DHT22;6539;49.476;8.484;2023-01-26T12:56:53;3.80;99.90
12948;DHT22;6539;49.476;8.484;2023-01-26T12:59:33;3.90;99.90
12948;DHT22;6539;49.476;8.484;2023-01-26T13:04:56;3.80;99.90
12948;DHT22;6539;49.476;8.484;2023-01-26T13:07:38;3.70;99.90
12948;DHT22;6539;49.476;8.484;2023-01-26T13:15:41;3.50;99.90
12948;DHT22;6539;49.476;8.484;2023-01-26T13:18:16;3.40;99.90
12948;DHT22;6539;49.476;8.484;2023-01-26T13:20:45;3.30;99.90
12948;DHT22;6539;49.476;8.484;2023-01-26T13:23:38;3.60;99.90
12948;DHT22;6539;49.476;8.484;2023-01-26T13:28:44;3.50;99.90
12948;DHT22;6539;49.476;8.484;2023-01-26T13:31:31;3.60;99.90
12948;DHT22;6539;49.476;8.484;2023-01-26T13:34:07;3.60;99.90
12948;DHT22;6539;49.476;8.484;2023-01-26T13:36:35;3.70;99.90
12948;DHT22;6539;49.476;8.484;2023-01-26T13:39:34;3.50;99.90
12948;DHT22;6539;49.476;8.484;2023-01-26T13:42:18;3.40;99.90
12948;DHT22;6539;49.476;8.484;2023-01-26T13:44:55;3.30;99.90
12948;DHT22;6539;49.476;8.484;2023-01-26T13:47:38;3.50;99.90
12948;DHT22;6539;49.476;8.484;2023-01-26T13:52:54;3.70;99.90
12948;DHT22;6539;49.476;8.484;2023-01-26T13:55:29;3.60;99.90
12948;DHT22;6539;49.476;8.484;2023-01-26T13:58:17;3.50;99.90
12948;DHT22;6539;49.476;8.484;2023-01-26T14:01:00;3.60;99.90
12948;DHT22;6539;49.476;8.484;2023-01-26T14:03:31;3.70;99.90
12948;DHT22;6539;49.476;8.484;2023-01-26T14:06:08;3.70;99.90
12948;DHT22;6539;49.476;8.484;2023-01-26T14:08:39;3.60;99.90
12948;DHT22;6539;49.476;8.484;2023-01-26T14:11:20;3.20;99.90
12948;DHT22;6539;49.476;8.484;2023-01-26T14:13:57;3.40;99.90
12948;DHT22;6539;49.476;8.484;2023-01-26T14:16:35;3.40;99.90
12948;DHT22;6539;49.476;8.484;2023-01-26T14:21:54;3.50;99.90
12948;DHT22;6539;49.476;8.484;2023-01-26T14:24:33;3.50;99.90
12948;DHT22;6539;49.476;8.484;2023-01-26T14:27:05;3.60;99.90
12948;DHT22;6539;49.476;8.484;2023-01-26T14:29:46;3.70;99.90
12948;DHT22;6539;49.476;8.484;2023-01-26T14:32:18;3.30;99.90
12948;DHT22;6539;49.476;8.484;2023-01-26T14:34:54;3.50;99.90
12948;DHT22;6539;49.476;8.484;2023-01-26T14:37:23;3.30;99.90
12948;DHT22;6539;49.476;8.484;2023-01-26T14:40:09;3.60;99.90
12948;DHT22;6539;49.476;8.484;2023-01-26T14:42:46;3.60;99.90
12948;DHT22;6539;49.476;8.484;2023-01-26T14:45:15;3.60;99.90
12948;DHT22;6539;49.476;8.484;2023-01-26T14:47:44;3.70;99.90
12948;DHT22;6539;49.476;8.484;2023-01-26T14:50:24;3.30;99.90
12948;DHT22;6539;49.476;8.484;2023-01-26T14:52:58;3.40;99.90
12948;DHT22;6539;49.476;8.484;2023-01-26T14:55:30;3.40;99.90
12948;DHT22;6539;49.476;8.484;2023-01-26T14:58:02;3.70;99.90
12948;DHT22;6539;49.476;8.484;2023-01-26T15:00:37;3.70;99.90
12948;DHT22;6539;49.476;8.484;2023-01-26T15:03:09;3.40;99.90
12948;DHT22;6539;49.476;8.484;2023-01-26T15:05:41;3.50;99.90
12948;DHT22;6539;49.476;8.484;2023-01-26T15:08:21;3.30;99.90
12948;DHT22;6539;49.476;8.484;2023-01-26T15:10:57;3.20;99.90
12948;DHT22;6539;49.476;8.484;2023-01-26T15:13:48;3.50;99.90
12948;DHT22;6539;49.476;8.484;2023-01-26T15:16:23;3.60;99.90
12948;DHT22;6539;49.476;8.484;2023-01-26T15:19:01;3.60;99.90
12948;DHT22;6539;49.476;8.484;2023-01-26T15:21:33;3.40;99.90
12948;DHT22;6539;49.476;8.484;2023-01-26T15:24:11;3.30;99.90
12948;DHT22;6539;49.476;8.484;2023-01-26T15:26:39;3.60;99.90
12948;DHT22;6539;49.476;8.484;2023-01-26T15:29:24;3.60;99.90
12948;DHT22;6539;49.476;8.484;2023-01-26T15:31:54;3.60;99.90
12948;DHT22;6539;49.476;8.484;2023-01-26T15:34:35;3.30;99.90
12948;DHT22;6539;49.476;8.484;2023-01-26T15:37:29;3.20;99.90
12948;DHT22;6539;49.476;8.484;2023-01-26T15:39:56;3.20;99.90
12948;DHT22;6539;49.476;8.484;2023-01-26T15:42:25;3.30;99.90
12948;DHT22;6539;49.476;8.484;2023-01-26T15:44:57;3.10;99.90
12948;DHT22;6539;49.476;8.484;2023-01-26T15:47:25;3.20;99.90
12948;DHT22;6539;49.476;8.484;2023-01-26T15:49:51;3.50;99.90
12948;DHT22;6539;49.476;8.484;2023-01-26T15:52:24;3.30;99.90
12948;DHT22;6539;49.476;8.484;2023-01-26T15:54:54;3.40;99.90
12948;DHT22;6539;49.476;8.484;2023-01-26T15:59:51;3.40;99.90
12948;DHT22;6539;49.476;8.484;2023-01-26T16:02:20;3.30;99.90
12948;DHT22;6539;49.476;8.484;2023-01-26T16:04:48;3.40;99.90
12948;DHT22;6539;49.476;8.484;2023-01-26T16:07:16;3.30;99.90
12948;DHT22;6539;49.476;8.484;2023-01-26T16:09:43;3.40;99.90
12948;DHT22;6539;49.476;8.484;2023-01-26T16:12:14;3.40;99.90
12948;DHT22;6539;49.476;8.484;2023-01-26T16:14:41;3.40;99.90
12948;DHT22;6539;49.476;8.484;2023-01-26T16:17:15;3.30;99.90
12948;DHT22;6539;49.476;8.484;2023-01-26T16:19:43;3.10;99.90
12948;DHT22;6539;49.476;8.484;2023-01-26T16:22:12;3.30;99.90
12948;DHT22;6539;49.476;8.484;2023-01-26T16:24:40;3.30;99.90
12948;DHT22;6539;49.476;8.484;2023-01-26T16:27:08;3.40;99.90
12948;DHT22;6539;49.476;8.484;2023-01-26T16:29:36;3.40;99.90
12948;DHT22;6539;49.476;8.484;2023-01-26T16:32:20;3.30;99.90
12948;DHT22;6539;49.476;8.484;2023-01-26T16:34:50;3.20;99.90
12948;DHT22;6539;49.476;8.484;2023-01-26T16:37:16;3.40;99.90
12948;DHT22;6539;49.476;8.484;2023-01-26T16:42:16;3.20;99.90
12948;DHT22;6539;49.476;8.484;2023-01-26T16:44:44;3.40;99.90
12948;DHT22;6539;49.476;8.484;2023-01-26T16:47:10;3.10;99.90
12948;DHT22;6539;49.476;8.484;2023-01-26T16:49:36;3.10;99.90
12948;DHT22;6539;49.476;8.484;2023-01-26T16:52:02;3.40;99.90
12948;DHT22;6539;49.476;8.484;2023-01-26T16:56:56;3.40;99.90
12948;DHT22;6539;49.476;8.484;2023-01-26T16:59:26;3.00;99.90
12948;DHT22;6539;49.476;8.484;2023-01-26T17:01:52;3.00;99.90
12948;DHT22;6539;49.476;8.484;2023-01-26T17:06:49;3.10;99.90
12948;DHT22;6539;49.476;8.484;2023-01-26T17:09:14;3.10;99.90
12948;DHT22;6539;49.476;8.484;2023-01-26T17:11:40;3.00;99.90
12948;DHT22;6539;49.476;8.484;2023-01-26T17:14:07;3.00;99.90
12948;DHT22;6539;49.476;8.484;2023-01-26T17:16:36;2.90;99.90
12948;DHT22;6539;49.476;8.484;2023-01-26T17:19:01;3.10;99.90
12948;DHT22;6539;49.476;8.484;2023-01-26T17:21:27;3.20;99.90
12948;DHT22;6539;49.476;8.484;2023-01-26T17:23:55;3.00;99.90
12948;DHT22;6539;49.476;8.484;2023-01-26T17:26:24;2.70;99.90
12948;DHT22;6539;49.476;8.484;2023-01-26T17:28:55;3.20;99.90
12948;DHT22;6539;49.476;8.484;2023-01-26T17:31:21;3.00;99.90
12948;DHT22;6539;49.476;8.484;2023-01-26T17:33:50;2.90;99.90
12948;DHT22;6539;49.476;8.484;2023-01-26T17:36:17;3.00;99.90
12948;DHT22;6539;49.476;8.484;2023-01-26T17:41:10;3.30;99.90
12948;DHT22;6539;49.476;8.484;2023-01-26T17:46:13;3.00;99.90
12948;DHT22;6539;49.476;8.484;2023-01-26T17:48:42;3.20;99.90
12948;DHT22;6539;49.476;8.484;2023-01-26T17:51:15;3.10;99.90
12948;DHT22;6539;49.476;8.484;2023-01-26T17:53:44;3.10;99.90
12948;DHT22;6539;49.476;8.484;2023-01-26T17:56:21;3.30;99.90
12948;DHT22;6539;49.476;8.484;2023-01-26T17:58:52;3.10;99.90
12948;DHT22;6539;49.476;8.484;2023-01-26T18:01:23;3.10;99.90
12948;DHT22;6539;49.476;8.484;2023-01-26T18:03:52;3.10;99.90
12948;DHT22;6539;49.476;8.484;2023-01-26T18:06:18;3.20;99.90
12948;DHT22;6539;49.476;8.484;2023-01-26T18:08:48;3.00;99.90
12948;DHT22;6539;49.476;8.484;2023-01-26T18:11:15;3.00;99.90
12948;DHT22;6539;49.476;8.484;2023-01-26T18:13:41;3.30;99.90
12948;DHT22;6539;49.476;8.484;2023-01-26T18:16:11;3.30;99.90
12948;DHT22;6539;49.476;8.484;2023-01-26T18:18:43;2.90;99.90
12948;DHT22;6539;49.476;8.484;2023-01-26T18:23:44;3.00;99.90
12948;DHT22;6539;49.476;8.484;2023-01-26T18:26:17;2.90;99.90
12948;DHT22;6539;49.476;8.484;2023-01-26T18:28:44;3.10;99.90
12948;DHT22;6539;49.476;8.484;2023-01-26T18:31:22;3.20;99.90
12948;DHT22;6539;49.476;8.484;2023-01-26T18:33:50;3.20;99.90
12948;DHT22;6539;49.476;8.484;2023-01-26T18:36:17;3.00;99.90
12948;DHT22;6539;49.476;8.484;2023-01-26T18:39:00;2.90;99.90
12948;DHT22;6539;49.476;8.484;2023-01-26T18:41:31;2.90;99.90
12948;DHT22;6539;49.476;8.484;2023-01-26T18:44:00;3.00;99.90
12948;DHT22;6539;49.476;8.484;2023-01-26T18:46:30;3.30;99.90
12948;DHT22;6539;49.476;8.484;2023-01-26T18:48:56;3.00;99.90